Flight Track Log - Related Links

Times and Time Zones

All times are in EDT time to prevent confusion due to time zone crossing. See the N960DL flight status page for this flight to view local times or setup timezone preferences in your user account.

Time Position Orientation Groundspeed Altitude Reporting Facility
EDT Latitude Longitude Course Direction KTS MPH feet Rate Location/Type
Thu 09:17:41 PM 33.6500 -84.3833 234° Southwest 152 175 2,400  Level Atlanta TRACON
Thu 09:18:41 PM 33.6667 -84.3333 68° East 229 264 4,300 2,400 Climbing Atlanta TRACON
Thu 09:19:41 PM 33.7333 -84.2833 32° Northeast 283 326 7,200 2,070 Climbing Atlanta TRACON
Thu 09:20:00 PM 33.8000 -84.5486 270° West  Level FlightAware Approximate
Thu 09:21:00 PM 33.7377 -84.6743 234° Southwest  Level FlightAware Approximate
Thu 09:22:00 PM 33.6638 -84.7943 234° Southwest  Level FlightAware Approximate
Thu 09:22:01 PM 33.8061 -84.4489 298° West 304 350 11,200  Level Atlanta Center
Thu 09:23:01 PM 33.7994 -84.5839 267° West 424 488 13,100 1,400 Climbing Atlanta Center
Thu 09:24:01 PM 33.7297 -84.7108 237° Southwest 409 471 14,000 450 Climbing Atlanta Center
Thu 09:25:01 PM 33.6583 -84.8200 232° Southwest 415 478 14,000 1,150 Level Atlanta Center
Thu 09:26:01 PM 33.6094 -84.9492 246° West 427 491 16,300 2,250 Climbing Atlanta Center
Thu 09:27:01 PM 33.5603 -85.0858 247° West 433 498 18,500 2,150 Climbing Atlanta Center
Thu 09:28:01 PM 33.5150 -85.2247 249° West 443 510 20,600 2,350 Climbing Atlanta Center
Thu 09:29:01 PM 33.4906 -85.3714 259° West 452 520 23,200 2,150 Climbing Atlanta Center
Thu 09:30:01 PM 33.4681 -85.5206 260° West 459 528 24,900 1,500 Climbing Atlanta Center
Thu 09:31:01 PM 33.4453 -85.6694 260° West 460 529 26,200 1,200 Climbing Atlanta Center
Thu 09:32:01 PM 33.4203 -85.8158 258° West 470 541 27,300 1,300 Climbing Atlanta Center
Thu 09:33:01 PM 33.3950 -85.9747 259° West 469 540 28,800 1,450 Climbing Atlanta Center
Thu 09:34:01 PM 33.3694 -86.1283 259° West 475 547 30,200 1,400 Climbing Atlanta Center
Thu 09:35:01 PM 33.3458 -86.2869 260° West 485 558 31,600 1,300 Climbing Atlanta Center
Thu 09:36:01 PM 33.3250 -86.4056 258° West 485 558 32,800 1,200 Climbing Atlanta Center
Thu 09:37:01 PM 33.2942 -86.5836 258° West 468 539 34,000 600 Climbing Atlanta Center
Thu 09:38:01 PM 33.2703 -86.7247 259° West 455 524 34,000  Level Atlanta Center
Thu 09:39:01 PM 33.2439 -86.8778 258° West 449 517 34,000  Level Atlanta Center
Thu 09:40:01 PM 33.2053 -87.0156 252° West 449 517 34,000  Level Atlanta Center
Thu 09:41:01 PM 33.1483 -87.1253 238° Southwest 443 510 34,000  Level Atlanta Center
Thu 09:42:01 PM 33.0886 -87.2544 241° Southwest 443 510 34,000 -930 Level Atlanta Center
Thu 09:44:08 PM 32.9533 -87.5522 242° Southwest 461 531 31,100 -1,251 Descending Memphis Center
Thu 09:45:08 PM 32.8936 -87.6878 242° Southwest 461 531 30,100 -550 Descending Memphis Center
Thu 09:46:08 PM 32.8317 -87.8183 241° Southwest 466 536 30,000 -50 Descending Memphis Center
Thu 09:47:08 PM 32.7781 -87.9556 245° Southwest 466 536 30,000 -250 Level Memphis Center
Thu 09:48:08 PM 32.7347 -88.0975 250° West 460 529 29,500 -700 Descending Memphis Center
Thu 09:49:08 PM 32.6956 -88.2417 252° West 460 529 28,600 -1,000 Descending Memphis Center
Thu 09:50:08 PM 32.6603 -88.3833 254° West 460 529 27,500 -1,350 Descending Memphis Center
Thu 09:51:08 PM 32.6208 -88.5294 252° West 455 524 25,900 -2,050 Descending Memphis Center
Thu 09:52:08 PM 32.5833 -88.6758 253° West 461 531 23,400 -2,750 Descending Memphis Center
Thu 09:53:08 PM 32.5494 -88.8144 254° West 456 525 20,400 -3,000 Descending Memphis Center
Thu 09:54:08 PM 32.5136 -88.9506 253° West 445 512 17,400 -2,750 Descending Memphis Center
Thu 09:55:08 PM 32.4794 -89.0792 253° West 432 497 14,900 -2,400 Descending Memphis Center
Thu 09:56:08 PM 32.4453 -89.2028 252° West 419 482 12,600 -2,150 Descending Memphis Center
Thu 09:57:08 PM 32.4172 -89.3261 255° West 408 470 10,600 -1,200 Descending Memphis Center
Thu 09:58:08 PM 32.3889 -89.4422 254° West 392 451 10,200 -700 Descending Memphis Center
Thu 09:59:08 PM 32.3622 -89.5383 252° West 348 400 9,200 -1,350 Descending Memphis Center
Thu 10:00:08 PM 32.3211 -89.6197 239° Southwest 310 357 7,500 -1,600 Descending Memphis Center
Thu 10:01:08 PM 32.2797 -89.6989 238° Southwest 295 339 6,000 -1,450 Descending Memphis Center
Thu 10:02:08 PM 32.2364 -89.7753 236° Southwest 290 334 4,600 -1,500 Descending Memphis Center
Thu 10:03:08 PM 32.1969 -89.8517 239° Southwest 285 328 3,000 -1,300 Descending Memphis Center
Thu 10:04:08 PM 32.1639 -89.9253 242° Southwest 277 319 2,000 -500 Descending Memphis Center
Thu 10:05:08 PM 32.1786 -90.0039 282° West 233 268 2,000  Level Memphis Center

Login

Don't have an account? Register now (free) for customized features, flight alerts, and more!